Decoded Metar for YMAV (AVALON in AUSTRALIA) (IATA:AVV) | Meteo·Mobile Aviation Weather
aviador You're here:

YMAV Decoded Metar

AVALON in AUSTRALIA
Report Time2018-08-18 05:00:00
UTC Time2018-08-18 05:08:20
Flight Rules vfr VFR
Wind300° at 20 kt
W.Decomp.*RWY 36: 6.5 kt HW 18.9 kt LCW
W.Rank300° ranks 3
Current wind is above 300° avg. (9.4)
Visibility9999 m
Phenomena:N/A
Clouds:Scattered 097 Hf
Expected CloudBase > 2,800 ft AGL from Temp-Dew spread
CeilingNone
Temp11°C (ISA -4)
Dew Point04°C (62% RH)
AAT2.5°C
QNH1007 hPa
Density Alt-131 ft
Elevation26 ft
Report Wrong Elevation
Raw Report
METAR YMAV 180500Z AUTO 30020KT 9999 // SCT097 11/04 Q1007=

Extra information for YMAV:More info

Metar Taf Metar & Taf Last 4 Metars F.Rules Stats Wind Profile Meteogram Temp Stats Airport Information Weather charts Add Link Nearby VenuesMetar ALERT Operation Metar Decoded Social comments